Time;durP1;ratioP1;P1;durP2;ratioP2;P2;SDS_P1;SDS_P2;PMS_P1;PMS_P2;Temp;Humidity;BMP_temperature;BMP_pressure;BME280_temperature;BME280_humidity;BME280_pressure;Samples;Min_cycle;Max_cycle;Signal;HPM_P1;HPM_P2
2023/01/19 00:00:30;;;;;;;17.02;3.55;;;;;;;;;;6217487;23;20008;-93
2023/01/19 00:02:56;;;;;;;7.93;1.80;;;;;;;;;;6191374;23;20012;-92
2023/01/19 00:05:22;;;;;;;6.80;2.33;;;;;;;;;;6193234;23;20000;-93
2023/01/19 00:07:48;;;;;;;8.95;2.70;;;;;;;;;;6192478;23;20019;-93
2023/01/19 00:10:14;;;;;;;2.60;1.55;;;;;;;;;;6192339;23;20008;-92
2023/01/19 00:12:40;;;;;;;11.20;1.73;;;;;;;;;;6192238;23;20182;-93
2023/01/19 00:15:07;;;;;;;1.33;1.13;;;;;;;;;;6217142;23;20011;-93
2023/01/19 00:17:33;;;;;;;3.20;1.10;;;;;;;;;;6214618;23;20015;-92
2023/01/19 00:20:07;;;;;;;6.13;0.77;;;;;;;;;;6189270;23;20043;-93
2023/01/19 00:22:34;;;;;;;2.92;1.15;;;;;;;;;;6215171;23;20018;-93
2023/01/19 00:25:00;;;;;;;5.97;1.27;;;;;;;;;;6189149;23;20012;-93
2023/01/19 00:27:28;;;;;;;5.32;1.55;;;;;;;;;;6189194;23;20008;-93
2023/01/19 00:29:54;;;;;;;4.68;2.10;;;;;;;;;;6189777;23;20012;-94
2023/01/19 00:32:20;;;;;;;5.10;2.10;;;;;;;;;;6215076;23;20008;-93
2023/01/19 00:34:48;;;;;;;5.85;1.35;;;;;;;;;;6187777;23;20012;-93
2023/01/19 00:37:15;;;;;;;2.78;1.42;;;;;;;;;;6213466;23;20087;-93
2023/01/19 00:39:42;;;;;;;5.35;1.38;;;;;;;;;;6213430;23;20396;-93
2023/01/19 00:44:56;;;;;;;3.05;1.23;;;;;;;;;;6241034;22;20086;-92
2023/01/19 00:47:22;;;;;;;3.08;1.50;;;;;;;;;;6213968;23;20000;-93
2023/01/19 00:49:48;;;;;;;5.53;1.70;;;;;;;;;;6189369;23;20008;-91
2023/01/19 00:52:14;;;;;;;2.45;1.42;;;;;;;;;;6189920;23;20038;-93
2023/01/19 00:54:41;;;;;;;0.63;0.63;;;;;;;;;;6215402;23;20012;-93
2023/01/19 00:57:07;;;;;;;2.08;1.50;;;;;;;;;;6190986;23;20035;-94
2023/01/19 00:59:42;;;;;;;4.00;1.60;;;;;;;;;;6188625;23;20012;-93
2023/01/19 01:02:10;;;;;;;9.85;2.13;;;;;;;;;;6190971;23;20099;-93
2023/01/19 01:04:36;;;;;;;1.15;0.93;;;;;;;;;;6215808;23;20492;-93
2023/01/19 01:07:04;;;;;;;4.40;1.65;;;;;;;;;;6189483;23;20043;-93
2023/01/19 01:09:30;;;;;;;6.38;1.55;;;;;;;;;;6214837;23;20012;-93
2023/01/19 01:11:56;;;;;;;8.88;2.05;;;;;;;;;;6189232;23;20016;-93
2023/01/19 01:14:23;;;;;;;3.05;0.73;;;;;;;;;;6187842;23;20004;-92
2023/01/19 01:16:49;;;;;;;3.70;0.98;;;;;;;;;;6212750;23;20440;-92
2023/01/19 01:19:15;;;;;;;4.35;1.25;;;;;;;;;;6213932;23;20159;-92
2023/01/19 01:21:41;;;;;;;1.80;1.02;;;;;;;;;;6214622;23;20039;-92
2023/01/19 01:24:08;;;;;;;3.42;1.13;;;;;;;;;;6188289;23;20364;-92
2023/01/19 01:26:34;;;;;;;8.15;1.48;;;;;;;;;;6212603;23;20016;-92
2023/01/19 01:29:00;;;;;;;3.95;1.25;;;;;;;;;;6188344;23;20762;-92
2023/01/19 01:31:27;;;;;;;3.55;0.38;;;;;;;;;;6215860;23;20051;-93
2023/01/19 01:33:53;;;;;;;5.80;1.23;;;;;;;;;;6216412;23;20055;-92
2023/01/19 01:36:19;;;;;;;2.85;1.13;;;;;;;;;;6193286;23;20035;-92
2023/01/19 01:38:45;;;;;;;0.28;0.17;;;;;;;;;;6216070;23;20007;-93
2023/01/19 01:41:12;;;;;;;5.38;0.63;;;;;;;;;;6216368;23;20825;-92
2023/01/19 01:43:42;;;;;;;0.30;0.25;;;;;;;;;;6191657;22;20016;-92
2023/01/19 01:46:08;;;;;;;3.60;0.52;;;;;;;;;;6216254;23;20097;-93
2023/01/19 01:48:36;;;;;;;9.48;1.05;;;;;;;;;;6190412;23;20019;-92
2023/01/19 01:51:23;;;;;;;1.75;0.85;;;;;;;;;;6216459;23;20767;-92
2023/01/19 01:53:52;;;;;;;7.60;0.82;;;;;;;;;;6214582;23;20016;-92
2023/01/19 01:56:21;;;;;;;2.92;0.70;;;;;;;;;;6217465;23;20061;-92
2023/01/19 01:58:48;;;;;;;1.75;0.82;;;;;;;;;;6215676;23;20004;-92
2023/01/19 02:03:59;;;;;;;3.20;0.70;;;;;;;;;;6220951;23;20101;-92
2023/01/19 02:06:25;;;;;;;1.17;0.60;;;;;;;;;;6192923;23;20069;-92
2023/01/19 02:14:22;;;;;;;0.93;0.68;;;;;;;;;;6243787;23;20098;-92
2023/01/19 02:16:48;;;;;;;4.15;1.67;;;;;;;;;;6191698;23;20008;-92
2023/01/19 02:19:20;;;;;;;7.40;2.05;;;;;;;;;;6193304;23;20444;-92
2023/01/19 02:21:51;;;;;;;2.33;1.40;;;;;;;;;;6219219;23;20015;-94
2023/01/19 02:24:18;;;;;;;2.40;1.65;;;;;;;;;;6217182;23;20091;-93
2023/01/19 02:26:45;;;;;;;3.13;1.38;;;;;;;;;;6191487;23;20697;-92
2023/01/19 02:29:16;;;;;;;10.45;1.80;;;;;;;;;;6217275;23;20008;-93
2023/01/19 02:31:42;;;;;;;4.90;2.25;;;;;;;;;;6216335;23;20008;-92
2023/01/19 02:34:09;;;;;;;1.40;0.77;;;;;;;;;;6215834;23;20004;-92
2023/01/19 02:36:56;;;;;;;5.90;2.38;;;;;;;;;;6216376;23;20400;-93
2023/01/19 02:39:29;;;;;;;1.08;0.95;;;;;;;;;;6214935;23;20035;-93
2023/01/19 02:41:59;;;;;;;5.25;2.28;;;;;;;;;;6213694;23;20399;-93
2023/01/19 02:44:32;;;;;;;7.43;2.65;;;;;;;;;;6219861;22;20097;-92
2023/01/19 02:47:03;;;;;;;3.05;1.80;;;;;;;;;;6219821;23;20007;-94
2023/01/19 02:49:29;;;;;;;1.55;0.82;;;;;;;;;;6196721;23;20004;-95
2023/01/19 02:51:56;;;;;;;11.13;1.40;;;;;;;;;;6194910;23;20590;-92
2023/01/19 02:54:41;;;;;;;8.75;1.70;;;;;;;;;;6192253;23;20091;-92
2023/01/19 02:57:07;;;;;;;7.57;2.08;;;;;;;;;;6217079;23;20014;-92
2023/01/19 02:59:53;;;;;;;6.55;2.13;;;;;;;;;;6215258;23;20004;-92
2023/01/19 03:02:19;;;;;;;;;;;;;;;;;;6190335;23;20039;-92
2023/01/19 03:05:04;;;;;;;1.40;1.00;;;;;;;;;;6217257;23;19953;-92
2023/01/19 03:07:34;;;;;;;2.30;1.35;;;;;;;;;;6243640;23;20000;-93
2023/01/19 03:10:00;;;;;;;4.10;2.03;;;;;;;;;;6218808;23;20012;-93
2023/01/19 03:12:26;;;;;;;6.43;2.00;;;;;;;;;;6218149;23;20012;-93
2023/01/19 03:14:55;;;;;;;3.67;1.70;;;;;;;;;;6219058;23;20004;-92
2023/01/19 03:17:21;;;;;;;3.42;1.55;;;;;;;;;;6220119;23;20019;-93
2023/01/19 03:19:48;;;;;;;8.25;1.80;;;;;;;;;;6220369;23;20043;-93
2023/01/19 03:22:19;;;;;;;6.18;2.00;;;;;;;;;;6217566;23;20570;-93
2023/01/19 03:24:46;;;;;;;6.53;2.10;;;;;;;;;;6215704;23;20158;-93
2023/01/19 03:27:19;;;;;;;5.35;1.92;;;;;;;;;;6187086;23;20011;-93
2023/01/19 03:29:48;;;;;;;6.57;2.50;;;;;;;;;;6214659;23;20035;-92
2023/01/19 03:32:15;;;;;;;5.38;1.17;;;;;;;;;;6214194;23;20008;-92
2023/01/19 03:34:42;;;;;;;4.40;1.60;;;;;;;;;;6214711;23;20015;-94
2023/01/19 03:37:09;;;;;;;7.22;2.17;;;;;;;;;;6213956;23;20463;-93
2023/01/19 03:39:35;;;;;;;3.00;1.63;;;;;;;;;;6213809;23;20012;-93
2023/01/19 03:42:04;;;;;;;7.13;2.10;;;;;;;;;;6188080;23;20024;-93
2023/01/19 03:44:31;;;;;;;7.85;2.80;;;;;;;;;;6216228;22;20018;-92
2023/01/19 03:46:59;;;;;;;7.85;2.88;;;;;;;;;;6213266;23;20004;-93
2023/01/19 03:49:25;;;;;;;6.35;2.80;;;;;;;;;;6214367;23;20012;-93
2023/01/19 03:51:54;;;;;;;1.48;0.77;;;;;;;;;;6214377;23;20007;-93
2023/01/19 03:54:20;;;;;;;3.95;2.50;;;;;;;;;;6213888;23;20011;-93
2023/01/19 03:56:46;;;;;;;5.43;1.83;;;;;;;;;;6213519;23;20013;-93
2023/01/19 03:59:16;;;;;;;9.43;2.70;;;;;;;;;;6188160;23;20108;-93
2023/01/19 04:01:42;;;;;;;3.67;1.88;;;;;;;;;;6189855;23;20018;-93
2023/01/19 04:04:08;;;;;;;2.97;1.60;;;;;;;;;;6189091;23;20019;-93
2023/01/19 04:06:35;;;;;;;3.78;2.45;;;;;;;;;;6189521;23;20008;-93
2023/01/19 04:09:01;;;;;;;5.82;2.05;;;;;;;;;;6189592;23;20098;-93
2023/01/19 04:11:27;;;;;;;6.50;2.72;;;;;;;;;;6189868;23;20384;-93
2023/01/19 04:13:53;;;;;;;6.40;2.22;;;;;;;;;;6191173;23;20015;-93
2023/01/19 04:16:20;;;;;;;6.72;3.15;;;;;;;;;;6215038;23;20004;-93
2023/01/19 04:18:47;;;;;;;11.75;2.33;;;;;;;;;;6190270;23;20012;-92
2023/01/19 04:21:13;;;;;;;12.80;2.67;;;;;;;;;;6188583;23;20016;-93
2023/01/19 04:23:39;;;;;;;7.15;3.15;;;;;;;;;;6187927;23;20015;-93
2023/01/19 04:26:06;;;;;;;9.75;3.22;;;;;;;;;;6212269;23;20012;-93
2023/01/19 04:28:33;;;;;;;14.20;3.30;;;;;;;;;;6188708;23;20012;-92
2023/01/19 04:30:59;;;;;;;7.35;2.90;;;;;;;;;;6188548;23;20352;-92
2023/01/19 04:33:26;;;;;;;14.73;3.35;;;;;;;;;;6188674;23;20404;-93
2023/01/19 04:35:53;;;;;;;15.38;3.38;;;;;;;;;;6213154;23;20075;-92
2023/01/19 04:38:19;;;;;;;7.30;2.97;;;;;;;;;;6212482;23;20497;-92
2023/01/19 04:40:46;;;;;;;13.32;2.85;;;;;;;;;;6189056;23;20442;-93
2023/01/19 04:43:13;;;;;;;9.18;3.20;;;;;;;;;;6189171;23;20035;-93
2023/01/19 04:45:45;;;;;;;6.88;2.97;;;;;;;;;;6217579;22;20012;-93
2023/01/19 04:48:12;;;;;;;13.35;2.78;;;;;;;;;;6215134;23;20008;-93
2023/01/19 04:50:39;;;;;;;4.63;2.58;;;;;;;;;;6189339;23;20015;-93
2023/01/19 04:53:05;;;;;;;6.70;2.85;;;;;;;;;;6215164;23;20087;-93
2023/01/19 04:55:31;;;;;;;11.50;2.97;;;;;;;;;;6190576;23;20012;-93
2023/01/19 04:57:57;;;;;;;5.18;2.78;;;;;;;;;;6189252;23;20464;-93
2023/01/19 05:00:23;;;;;;;8.77;2.67;;;;;;;;;;6191458;23;20015;-94
2023/01/19 05:02:49;;;;;;;10.15;2.80;;;;;;;;;;6187824;23;20429;-93
2023/01/19 05:05:16;;;;;;;8.32;2.83;;;;;;;;;;6188857;23;20015;-93
2023/01/19 05:07:42;;;;;;;4.93;2.50;;;;;;;;;;6214034;23;20000;-93
2023/01/19 05:10:08;;;;;;;5.57;2.53;;;;;;;;;;6212654;23;20079;-92
2023/01/19 05:12:36;;;;;;;9.45;2.85;;;;;;;;;;6187489;23;20019;-93
2023/01/19 05:15:03;;;;;;;9.98;2.90;;;;;;;;;;6212016;23;20365;-93
2023/01/19 05:17:29;;;;;;;9.75;2.70;;;;;;;;;;6212960;23;20016;-92
2023/01/19 05:19:55;;;;;;;8.20;2.88;;;;;;;;;;6187954;23;20409;-92
2023/01/19 05:22:21;;;;;;;14.18;2.88;;;;;;;;;;6212122;23;20011;-92
2023/01/19 05:24:50;;;;;;;10.25;3.60;;;;;;;;;;6212712;23;20383;-92
2023/01/19 05:27:16;;;;;;;5.55;2.42;;;;;;;;;;6187512;23;20395;-92
2023/01/19 05:29:42;;;;;;;5.47;2.17;;;;;;;;;;6189568;23;20004;-92
2023/01/19 05:32:08;;;;;;;7.95;2.50;;;;;;;;;;6213549;23;20115;-93
2023/01/19 05:34:34;;;;;;;7.32;2.83;;;;;;;;;;6191229;23;20066;-93
2023/01/19 05:37:00;;;;;;;9.15;2.33;;;;;;;;;;6190068;23;20420;-93
2023/01/19 05:39:27;;;;;;;7.63;2.38;;;;;;;;;;6214569;23;20428;-93
2023/01/19 05:41:56;;;;;;;6.15;2.15;;;;;;;;;;6191641;23;20042;-93
2023/01/19 05:44:22;;;;;;;5.18;1.90;;;;;;;;;;6197125;22;20137;-94
2023/01/19 05:46:48;;;;;;;3.50;2.00;;;;;;;;;;6190550;23;20011;-94
2023/01/19 05:49:14;;;;;;;9.30;1.75;;;;;;;;;;6217193;23;20004;-94
2023/01/19 05:51:44;;;;;;;10.15;2.25;;;;;;;;;;6215892;23;20008;-92
2023/01/19 05:54:11;;;;;;;6.28;1.38;;;;;;;;;;6187373;23;20008;-92
2023/01/19 05:56:38;;;;;;;4.20;1.10;;;;;;;;;;6212100;23;20008;-92
2023/01/19 05:59:04;;;;;;;3.05;0.68;;;;;;;;;;6212087;23;20004;-93
2023/01/19 06:01:32;;;;;;;1.60;0.80;;;;;;;;;;6215176;23;20012;-91
2023/01/19 06:03:58;;;;;;;9.02;0.63;;;;;;;;;;6215665;23;20062;-93
2023/01/19 06:06:24;;;;;;;8.07;1.08;;;;;;;;;;6191061;23;20019;-93
2023/01/19 06:08:50;;;;;;;1.98;0.80;;;;;;;;;;6189108;23;20337;-93
2023/01/19 06:11:16;;;;;;;5.35;0.80;;;;;;;;;;6191550;23;20008;-92
2023/01/19 06:13:42;;;;;;;4.38;1.00;;;;;;;;;;6190102;23;20008;-92
2023/01/19 06:16:09;;;;;;;7.78;1.42;;;;;;;;;;6191548;23;20013;-92
2023/01/19 06:18:36;;;;;;;3.83;1.05;;;;;;;;;;6215597;23;20511;-92
2023/01/19 06:21:11;;;;;;;7.72;0.90;;;;;;;;;;6216461;23;20004;-93
2023/01/19 06:23:37;;;;;;;7.50;0.80;;;;;;;;;;6191417;23;20099;-93
2023/01/19 06:26:03;;;;;;;8.07;0.82;;;;;;;;;;6215312;23;20015;-92
2023/01/19 06:28:30;;;;;;;7.25;1.20;;;;;;;;;;6214128;23;20000;-92
2023/01/19 06:30:56;;;;;;;10.07;1.33;;;;;;;;;;6214852;23;20040;-92
2023/01/19 06:33:26;;;;;;;10.75;0.88;;;;;;;;;;6214526;23;20012;-93
2023/01/19 06:35:52;;;;;;;7.80;1.38;;;;;;;;;;6215945;23;20066;-92
2023/01/19 06:38:19;;;;;;;5.30;0.65;;;;;;;;;;6188658;23;20012;-92
2023/01/19 06:40:45;;;;;;;6.20;1.13;;;;;;;;;;6214710;23;20020;-91
2023/01/19 06:43:12;;;;;;;1.70;0.88;;;;;;;;;;6213242;23;20508;-92
2023/01/19 06:45:44;;;;;;;6.80;1.05;;;;;;;;;;6217445;22;20424;-92
2023/01/19 06:48:10;;;;;;;4.20;0.98;;;;;;;;;;6217172;23;20019;-92
2023/01/19 06:50:36;;;;;;;8.27;1.10;;;;;;;;;;6215384;23;20007;-92
2023/01/19 06:53:03;;;;;;;6.05;1.23;;;;;;;;;;6191930;23;20126;-92
2023/01/19 06:55:29;;;;;;;2.80;0.60;;;;;;;;;;6192758;23;20094;-94
2023/01/19 06:57:57;;;;;;;5.60;1.33;;;;;;;;;;6186849;23;20483;-92
2023/01/19 07:00:25;;;;;;;6.97;1.60;;;;;;;;;;6214583;23;20555;-93
2023/01/19 07:02:51;;;;;;;12.90;1.60;;;;;;;;;;6191390;23;20349;-93
2023/01/19 07:05:21;;;;;;;10.27;1.20;;;;;;;;;;6215218;23;20091;-93
2023/01/19 07:07:54;;;;;;;4.20;1.17;;;;;;;;;;6191280;23;20098;-92
2023/01/19 07:10:20;;;;;;;20.38;1.25;;;;;;;;;;6215628;23;20035;-91
2023/01/19 07:12:46;;;;;;;5.00;1.13;;;;;;;;;;6213195;23;20088;-90
2023/01/19 07:15:13;;;;;;;9.63;1.13;;;;;;;;;;6213524;23;20015;-90
2023/01/19 07:17:41;;;;;;;11.05;1.45;;;;;;;;;;6210433;23;20119;-92
2023/01/19 07:20:08;;;;;;;17.27;1.90;;;;;;;;;;6188495;23;20499;-90
2023/01/19 07:22:34;;;;;;;15.18;1.65;;;;;;;;;;6185383;23;20409;-90
2023/01/19 07:25:00;;;;;;;11.55;1.20;;;;;;;;;;6186579;23;20027;-90
2023/01/19 07:27:27;;;;;;;17.90;1.25;;;;;;;;;;6185164;23;20089;-90
2023/01/19 07:29:53;;;;;;;18.52;1.80;;;;;;;;;;6213456;23;20074;-91
2023/01/19 07:32:19;;;;;;;18.60;1.45;;;;;;;;;;6188779;23;20486;-90
2023/01/19 07:34:45;;;;;;;14.02;1.95;;;;;;;;;;6187365;23;20099;-90
2023/01/19 07:37:12;;;;;;;7.18;1.23;;;;;;;;;;6211568;23;20019;-90
2023/01/19 07:39:38;;;;;;;16.83;1.30;;;;;;;;;;6188453;23;20015;-90
2023/01/19 07:42:04;;;;;;;9.48;1.05;;;;;;;;;;6185154;23;20050;-90
2023/01/19 07:44:30;;;;;;;7.72;0.90;;;;;;;;;;6187459;23;20064;-91
2023/01/19 07:46:56;;;;;;;7.90;1.30;;;;;;;;;;6188892;22;20403;-90
2023/01/19 07:49:22;;;;;;;19.35;1.73;;;;;;;;;;6189073;23;20012;-90
2023/01/19 07:51:48;;;;;;;3.22;1.10;;;;;;;;;;6210966;23;20058;-90
2023/01/19 07:54:17;;;;;;;7.35;1.40;;;;;;;;;;6240762;23;20012;-89
2023/01/19 07:56:43;;;;;;;12.63;1.48;;;;;;;;;;6209761;23;20458;-91
2023/01/19 07:59:09;;;;;;;9.75;1.77;;;;;;;;;;6186482;23;20008;-91
2023/01/19 08:01:36;;;;;;;19.88;1.88;;;;;;;;;;6186237;23;20031;-91
2023/01/19 08:04:02;;;;;;;11.13;1.50;;;;;;;;;;6188403;23;20012;-90
2023/01/19 08:06:35;;;;;;;3.67;0.63;;;;;;;;;;6212136;23;20004;-91
2023/01/19 08:09:04;;;;;;;7.78;1.35;;;;;;;;;;6212165;23;20012;-90
2023/01/19 08:11:30;;;;;;;7.50;1.35;;;;;;;;;;6187591;23;20001;-90
2023/01/19 08:13:56;;;;;;;11.10;0.77;;;;;;;;;;6187653;23;20047;-91
2023/01/19 08:16:23;;;;;;;16.77;2.05;;;;;;;;;;6187866;23;20352;-90
2023/01/19 08:18:49;;;;;;;10.98;1.77;;;;;;;;;;6211414;23;20008;-91
2023/01/19 08:21:16;;;;;;;6.85;1.02;;;;;;;;;;6212172;23;20265;-90
2023/01/19 08:23:42;;;;;;;17.23;2.10;;;;;;;;;;6211964;23;20070;-90
2023/01/19 08:26:18;;;;;;;11.63;0.95;;;;;;;;;;6185116;23;20036;-90
2023/01/19 08:28:44;;;;;;;12.88;2.03;;;;;;;;;;6210437;23;20000;-91
2023/01/19 08:31:10;;;;;;;16.40;1.50;;;;;;;;;;6210579;23;20004;-90
2023/01/19 08:33:36;;;;;;;16.27;2.60;;;;;;;;;;6212433;23;20019;-90
2023/01/19 08:36:03;;;;;;;33.70;1.90;;;;;;;;;;6185446;23;20041;-90
2023/01/19 08:38:29;;;;;;;10.93;1.10;;;;;;;;;;6185988;23;20505;-90
2023/01/19 08:40:55;;;;;;;19.02;1.90;;;;;;;;;;6186753;23;20016;-91
2023/01/19 08:43:21;;;;;;;13.88;1.42;;;;;;;;;;6210958;23;20008;-90
2023/01/19 08:45:50;;;;;;;7.10;1.90;;;;;;;;;;6189643;22;20024;-90
2023/01/19 08:48:18;;;;;;;29.30;1.88;;;;;;;;;;6212096;23;20074;-91
2023/01/19 08:50:48;;;;;;;7.07;1.45;;;;;;;;;;6211365;23;20011;-91
2023/01/19 08:53:14;;;;;;;11.98;1.70;;;;;;;;;;6209741;23;20087;-90
2023/01/19 08:55:41;;;;;;;18.45;2.17;;;;;;;;;;6212164;23;20039;-90
2023/01/19 08:58:10;;;;;;;17.98;2.38;;;;;;;;;;6208627;23;20466;-91
2023/01/19 09:00:37;;;;;;;9.43;1.83;;;;;;;;;;6212466;23;20368;-90
2023/01/19 09:03:04;;;;;;;18.33;2.03;;;;;;;;;;6211735;23;20008;-90
2023/01/19 09:05:34;;;;;;;15.32;2.42;;;;;;;;;;6213006;23;20107;-91
2023/01/19 09:08:01;;;;;;;18.92;2.53;;;;;;;;;;6187878;23;20420;-91
2023/01/19 09:10:30;;;;;;;10.20;1.70;;;;;;;;;;6211923;23;20035;-91
2023/01/19 09:12:56;;;;;;;11.40;0.90;;;;;;;;;;6209653;23;20396;-91
2023/01/19 09:15:23;;;;;;;9.32;1.35;;;;;;;;;;6211178;23;20012;-92
2023/01/19 09:17:51;;;;;;;31.30;2.60;;;;;;;;;;6210827;23;20404;-91
2023/01/19 09:20:18;;;;;;;10.95;2.10;;;;;;;;;;6209916;23;20087;-91
2023/01/19 09:22:46;;;;;;;13.52;1.85;;;;;;;;;;6212105;23;20031;-90
2023/01/19 09:25:12;;;;;;;19.40;1.75;;;;;;;;;;6187673;23;20098;-91
2023/01/19 09:27:38;;;;;;;12.85;2.38;;;;;;;;;;6186189;23;20095;-91
2023/01/19 09:30:05;;;;;;;7.43;2.25;;;;;;;;;;6212782;23;20004;-91
2023/01/19 09:32:32;;;;;;;13.75;2.47;;;;;;;;;;6188842;23;20036;-90
2023/01/19 09:34:58;;;;;;;19.85;2.15;;;;;;;;;;6217056;23;20424;-91
2023/01/19 09:37:24;;;;;;;2.17;0.65;;;;;;;;;;6187491;23;20012;-91
2023/01/19 09:39:50;;;;;;;10.52;1.83;;;;;;;;;;6186400;23;20476;-91
2023/01/19 09:42:24;;;;;;;12.90;2.15;;;;;;;;;;6212332;23;20012;-91
2023/01/19 09:44:52;;;;;;;21.83;2.05;;;;;;;;;;6213217;23;20079;-91
2023/01/19 09:47:28;;;;;;;6.82;1.48;;;;;;;;;;6191736;22;20020;-90
2023/01/19 09:49:53;;;;;;;;;;;;;;;;;;6214283;23;20083;-91
2023/01/19 09:52:21;;;;;;;16.15;2.35;;;;;;;;;;6212770;23;20316;-91
2023/01/19 09:54:51;;;;;;;21.50;1.60;;;;;;;;;;6188749;23;20066;-91
2023/01/19 09:57:18;;;;;;;13.30;1.55;;;;;;;;;;6212520;23;20004;-91
2023/01/19 09:59:47;;;;;;;15.30;1.80;;;;;;;;;;6212883;23;20095;-91
2023/01/19 10:02:22;;;;;;;8.27;1.65;;;;;;;;;;6188890;23;20016;-91
2023/01/19 10:04:55;;;;;;;11.25;1.98;;;;;;;;;;6213123;23;20008;-90
2023/01/19 10:07:30;;;;;;;10.50;1.73;;;;;;;;;;6213339;23;20479;-90
2023/01/19 10:09:59;;;;;;;11.55;1.05;;;;;;;;;;6212892;23;20061;-90
2023/01/19 10:12:33;;;;;;;11.75;2.17;;;;;;;;;;6213693;23;20091;-91
2023/01/19 10:15:03;;;;;;;17.45;1.65;;;;;;;;;;6214079;23;20004;-90
2023/01/19 10:17:44;;;;;;;17.27;1.85;;;;;;;;;;6215665;23;20019;-90
2023/01/19 10:20:14;;;;;;;16.83;1.88;;;;;;;;;;6216465;23;20448;-90
2023/01/19 10:22:42;;;;;;;8.05;1.45;;;;;;;;;;6214927;23;20008;-90
2023/01/19 10:25:13;;;;;;;8.50;1.30;;;;;;;;;;6215858;23;20008;-90
2023/01/19 10:27:40;;;;;;;12.65;1.67;;;;;;;;;;6189426;23;20012;-90
2023/01/19 10:30:07;;;;;;;13.05;2.45;;;;;;;;;;6190059;23;20015;-90
2023/01/19 10:32:34;;;;;;;8.77;1.75;;;;;;;;;;6215045;23;20448;-90
2023/01/19 10:35:02;;;;;;;10.52;1.85;;;;;;;;;;6215852;23;20011;-90
2023/01/19 10:37:29;;;;;;;6.93;1.45;;;;;;;;;;6214374;23;20772;-90
2023/01/19 10:40:06;;;;;;;11.63;1.55;;;;;;;;;;6215101;23;20008;-90
2023/01/19 10:42:32;;;;;;;7.38;1.30;;;;;;;;;;6214440;23;20044;-90
2023/01/19 10:44:58;;;;;;;10.13;1.80;;;;;;;;;;6189041;23;20008;-90
2023/01/19 10:47:30;;;;;;;7.80;1.60;;;;;;;;;;6191232;22;20025;-91
2023/01/19 10:49:56;;;;;;;9.70;1.52;;;;;;;;;;6215976;23;20012;-90
2023/01/19 10:52:36;;;;;;;5.90;1.65;;;;;;;;;;6188888;23;20038;-91
2023/01/19 10:55:03;;;;;;;21.83;2.22;;;;;;;;;;6215404;23;20007;-91
2023/01/19 10:57:37;;;;;;;11.60;1.52;;;;;;;;;;6214827;23;20011;-91
2023/01/19 11:00:05;;;;;;;6.25;1.65;;;;;;;;;;6240796;23;20061;-91
2023/01/19 11:02:31;;;;;;;11.82;1.92;;;;;;;;;;6215650;23;20031;-91
2023/01/19 11:04:58;;;;;;;3.70;1.60;;;;;;;;;;6242201;23;20011;-90
2023/01/19 11:07:32;;;;;;;8.63;1.73;;;;;;;;;;6215716;23;20391;-91
2023/01/19 11:10:20;;;;;;;10.07;1.83;;;;;;;;;;6214313;23;20011;-90
2023/01/19 11:13:01;;;;;;;13.95;1.80;;;;;;;;;;6213794;23;20913;-90
2023/01/19 11:15:34;;;;;;;13.10;2.30;;;;;;;;;;6216212;23;20008;-90
2023/01/19 11:18:02;;;;;;;9.40;1.48;;;;;;;;;;6214854;23;20004;-90
2023/01/19 11:20:52;;;;;;;9.60;1.83;;;;;;;;;;6214964;23;20008;-91
2023/01/19 11:23:18;;;;;;;7.32;2.28;;;;;;;;;;6195435;23;20078;-90
2023/01/19 11:25:48;;;;;;;11.32;1.80;;;;;;;;;;6212710;23;20008;-91
2023/01/19 11:28:26;;;;;;;11.02;2.22;;;;;;;;;;6212665;23;20079;-90
2023/01/19 11:30:59;;;;;;;13.48;2.13;;;;;;;;;;6212019;23;20095;-90
2023/01/19 11:33:32;;;;;;;5.30;1.73;;;;;;;;;;6212805;23;20328;-91
2023/01/19 11:36:01;;;;;;;10.38;1.73;;;;;;;;;;6214384;23;20019;-90
2023/01/19 11:38:28;;;;;;;7.82;1.88;;;;;;;;;;6210711;23;20344;-91
2023/01/19 11:40:55;;;;;;;8.88;1.92;;;;;;;;;;6188248;23;20348;-92
2023/01/19 11:43:22;;;;;;;9.80;2.22;;;;;;;;;;6212926;23;20677;-90
2023/01/19 11:45:48;;;;;;;6.15;2.20;;;;;;;;;;6214089;22;20074;-90
2023/01/19 11:48:41;;;;;;;14.20;1.77;;;;;;;;;;6213548;23;20102;-90
2023/01/19 11:51:11;;;;;;;8.18;1.23;;;;;;;;;;6182633;23;20008;-90
2023/01/19 11:53:37;;;;;;;10.73;1.60;;;;;;;;;;6212421;23;20456;-90
2023/01/19 11:56:06;;;;;;;8.45;1.75;;;;;;;;;;6189513;23;20008;-91
2023/01/19 11:58:36;;;;;;;12.15;1.83;;;;;;;;;;6213800;23;20016;-91
2023/01/19 12:01:02;;;;;;;8.52;1.92;;;;;;;;;;6214047;23;20063;-91
2023/01/19 12:03:43;;;;;;;13.82;3.30;;;;;;;;;;6211616;23;20588;-91
2023/01/19 12:06:11;;;;;;;13.18;2.45;;;;;;;;;;6214480;23;20013;-91
2023/01/19 12:08:43;;;;;;;11.50;1.75;;;;;;;;;;6214136;23;20012;-91
2023/01/19 12:11:12;;;;;;;6.22;1.02;;;;;;;;;;6216177;23;20004;-90
2023/01/19 12:13:40;;;;;;;4.70;0.75;;;;;;;;;;6215007;23;20095;-91
2023/01/19 12:16:17;;;;;;;9.90;1.48;;;;;;;;;;6215819;23;20012;-91
2023/01/19 12:19:01;;;;;;;8.63;1.50;;;;;;;;;;6213977;23;20051;-91
2023/01/19 12:21:33;;;;;;;8.88;1.33;;;;;;;;;;6213007;23;20550;-91
2023/01/19 12:24:05;;;;;;;12.18;1.42;;;;;;;;;;6213827;23;20213;-91
2023/01/19 12:26:42;;;;;;;9.27;1.52;;;;;;;;;;6212423;23;20009;-91
2023/01/19 12:29:13;;;;;;;9.25;1.45;;;;;;;;;;6238202;23;20004;-91
2023/01/19 12:31:39;;;;;;;3.67;0.70;;;;;;;;;;6241875;23;20443;-91
2023/01/19 12:34:24;;;;;;;7.43;1.45;;;;;;;;;;6214439;23;20447;-92
2023/01/19 12:36:51;;;;;;;7.53;1.48;;;;;;;;;;6213373;23;20008;-91
2023/01/19 12:39:21;;;;;;;6.45;1.15;;;;;;;;;;6214286;23;20012;-91
2023/01/19 12:41:48;;;;;;;11.20;1.50;;;;;;;;;;6241369;23;20004;-91
2023/01/19 12:44:17;;;;;;;6.60;0.82;;;;;;;;;;6215122;23;20008;-92
2023/01/19 12:46:53;;;;;;;10.75;1.52;;;;;;;;;;6211333;22;20441;-91
2023/01/19 12:49:25;;;;;;;8.75;1.08;;;;;;;;;;6234904;23;20015;-91
2023/01/19 12:51:52;;;;;;;11.30;1.27;;;;;;;;;;6235807;23;20312;-91
2023/01/19 12:54:32;;;;;;;9.75;0.93;;;;;;;;;;6234881;23;20032;-91
2023/01/19 12:57:01;;;;;;;13.68;1.65;;;;;;;;;;6233667;23;20011;-91
2023/01/19 12:59:30;;;;;;;1.10;0.65;;;;;;;;;;6234497;23;20008;-92
2023/01/19 13:02:15;;;;;;;9.85;1.50;;;;;;;;;;6234800;23;20009;-91
2023/01/19 13:05:01;;;;;;;5.30;1.17;;;;;;;;;;6232399;23;20441;-91
2023/01/19 13:07:28;;;;;;;15.20;2.00;;;;;;;;;;6232568;23;20005;-92
2023/01/19 13:09:55;;;;;;;3.90;1.17;;;;;;;;;;6208761;23;20728;-91
2023/01/19 13:12:21;;;;;;;3.35;0.82;;;;;;;;;;6208920;23;20036;-91
2023/01/19 13:14:49;;;;;;;6.28;1.00;;;;;;;;;;6233224;23;20022;-92
2023/01/19 13:17:21;;;;;;;4.45;1.33;;;;;;;;;;6208720;23;20371;-92
2023/01/19 13:19:50;;;;;;;4.75;1.17;;;;;;;;;;6232639;23;20009;-91
2023/01/19 13:22:39;;;;;;;5.22;1.25;;;;;;;;;;6234144;23;20086;-91
2023/01/19 13:25:07;;;;;;;6.25;0.90;;;;;;;;;;6197071;23;20015;-91
2023/01/19 13:27:34;;;;;;;5.63;1.58;;;;;;;;;;6233391;23;20005;-91
2023/01/19 13:30:01;;;;;;;9.77;1.38;;;;;;;;;;6208831;23;20088;-91
2023/01/19 13:32:28;;;;;;;8.85;1.30;;;;;;;;;;6234106;23;20004;-91
2023/01/19 13:34:57;;;;;;;10.75;1.33;;;;;;;;;;6207681;23;20062;-91
2023/01/19 13:37:29;;;;;;;2.33;0.90;;;;;;;;;;6234101;23;20008;-91
2023/01/19 13:39:55;;;;;;;0.77;0.22;;;;;;;;;;6232887;23;20005;-91
2023/01/19 13:42:33;;;;;;;4.30;1.17;;;;;;;;;;6208853;23;20107;-92
2023/01/19 13:45:01;;;;;;;9.13;1.45;;;;;;;;;;6232855;23;20076;-92
2023/01/19 13:47:30;;;;;;;14.20;1.60;;;;;;;;;;6235132;22;20021;-92
2023/01/19 13:49:57;;;;;;;8.27;1.40;;;;;;;;;;6234392;23;20013;-92
2023/01/19 13:52:23;;;;;;;3.67;1.17;;;;;;;;;;6235453;23;20008;-92
2023/01/19 13:54:51;;;;;;;4.53;1.02;;;;;;;;;;6236043;23;20425;-92
2023/01/19 13:57:33;;;;;;;5.70;1.27;;;;;;;;;;6235750;23;20745;-92
2023/01/19 14:00:05;;;;;;;3.70;0.90;;;;;;;;;;6234383;23;20000;-92
2023/01/19 14:02:32;;;;;;;6.72;1.63;;;;;;;;;;6210238;23;20017;-92
2023/01/19 14:04:58;;;;;;;5.90;0.90;;;;;;;;;;6236065;23;20005;-92
2023/01/19 14:07:27;;;;;;;14.07;1.35;;;;;;;;;;6235137;23;20008;-92
2023/01/19 14:10:04;;;;;;;7.20;2.13;;;;;;;;;;6211571;23;20437;-92
2023/01/19 14:12:31;;;;;;;4.03;0.82;;;;;;;;;;6233632;23;20104;-92
2023/01/19 14:14:57;;;;;;;16.05;2.03;;;;;;;;;;6210607;23;20019;-92
2023/01/19 14:17:31;;;;;;;2.58;1.30;;;;;;;;;;6209869;23;20004;-92
2023/01/19 14:20:01;;;;;;;3.70;1.30;;;;;;;;;;6211856;23;20005;-92
2023/01/19 14:22:37;;;;;;;1.90;0.77;;;;;;;;;;6235874;23;20068;-93
2023/01/19 14:25:22;;;;;;;12.82;1.40;;;;;;;;;;6211239;23;20009;-92
2023/01/19 14:27:48;;;;;;;10.38;1.75;;;;;;;;;;6236536;23;20372;-93
2023/01/19 14:30:20;;;;;;;5.68;0.93;;;;;;;;;;6209040;23;20020;-93
2023/01/19 14:32:46;;;;;;;18.30;1.92;;;;;;;;;;6234216;23;20456;-92
2023/01/19 14:35:14;;;;;;;9.68;1.75;;;;;;;;;;6209394;23;20012;-92
2023/01/19 14:37:48;;;;;;;13.00;1.90;;;;;;;;;;6233181;23;20015;-92
2023/01/19 14:40:17;;;;;;;8.85;1.23;;;;;;;;;;6234151;23;20036;-92
2023/01/19 14:42:54;;;;;;;7.13;1.38;;;;;;;;;;6232691;23;20012;-92
2023/01/19 14:45:20;;;;;;;4.57;0.88;;;;;;;;;;6233926;23;20058;-91
2023/01/19 14:47:53;;;;;;;8.38;1.30;;;;;;;;;;6236348;22;20021;-93
2023/01/19 14:50:24;;;;;;;7.88;0.77;;;;;;;;;;6209659;23;20036;-92
2023/01/19 14:52:59;;;;;;;6.03;0.40;;;;;;;;;;6233694;23;20451;-92
2023/01/19 14:55:33;;;;;;;1.15;0.52;;;;;;;;;;6235021;23;20008;-92
2023/01/19 14:57:59;;;;;;;4.13;0.82;;;;;;;;;;6234722;23;20015;-92
2023/01/19 15:00:25;;;;;;;1.75;1.02;;;;;;;;;;6208192;23;20038;-92